17°C Temp
11°C Dewpoint
% Humidity
Temperature
19 KM/H
12 MPH
10 KTS
110°
East South
East

Wind Speed
Parcialmente Nublado
Pressure 1018.92 (hPa) - 30.09 (in)
Visibility 6.2 (mi) - 10.0 (km)

Current Conditions
LEVC
Location 70(km)
Metar :LEVC 041630Z 11010KT 070V150 9999 FEW022 17/11 Q1019 NOSIG
Sat 4th April 18:30 pm

Airport
  Metar Aviation API Data Provided by https://www.checkwx.com/ PHP scripts by weather34.com ©2020